createdAt,value
2017-11-30T00:00:05.305Z,25.23
2017-11-30T00:02:34.888Z,24.17
2017-11-30T00:05:04.511Z,24.57
2017-11-30T00:07:34.223Z,21.70
2017-11-30T00:10:03.076Z,22.33
2017-11-30T00:12:31.939Z,23.07
2017-11-30T00:15:00.788Z,20.60
2017-11-30T00:17:29.628Z,19.93
2017-11-30T00:19:58.467Z,18.87
2017-11-30T00:22:27.319Z,22.17
2017-11-30T00:24:56.264Z,20.90
2017-11-30T00:27:25.184Z,21.23
2017-11-30T00:29:54.025Z,20.07
2017-11-30T00:32:22.876Z,21.67
2017-11-30T00:34:52.038Z,20.27
2017-11-30T00:37:21.499Z,18.87
2017-11-30T00:39:50.347Z,20.33
2017-11-30T00:42:25.079Z,22.03
2017-11-30T00:44:53.919Z,22.40
2017-11-30T00:47:22.752Z,21.90
2017-11-30T00:49:51.597Z,21.20
2017-11-30T00:52:20.442Z,23.03
2017-11-30T00:54:49.275Z,24.63
2017-11-30T00:57:18.112Z,29.30
2017-11-30T00:59:47.025Z,25.60
2017-11-30T01:02:15.864Z,28.37
2017-11-30T01:04:44.696Z,27.80
2017-11-30T01:07:13.548Z,30.03
2017-11-30T01:09:42.468Z,30.50
2017-11-30T01:12:11.300Z,32.67
2017-11-30T01:14:40.151Z,31.83
2017-11-30T01:17:08.980Z,28.60
2017-11-30T01:19:37.891Z,30.83
2017-11-30T01:22:07.484Z,31.43
2017-11-30T01:24:37.144Z,27.27
2017-11-30T01:27:06.815Z,24.33
2017-11-30T01:29:36.400Z,28.60
2017-11-30T01:32:06.087Z,28.87
2017-11-30T01:34:35.031Z,24.60
2017-11-30T01:37:03.863Z,26.33
2017-11-30T01:39:32.699Z,28.60
2017-11-30T01:42:01.600Z,29.03
2017-11-30T01:44:30.597Z,29.60
2017-11-30T01:46:59.464Z,25.87
2017-11-30T01:49:28.378Z,22.70
2017-11-30T01:51:57.240Z,24.83
2017-11-30T01:54:26.176Z,25.60
2017-11-30T01:56:55.100Z,24.07
2017-11-30T01:59:23.972Z,21.83
2017-11-30T02:01:52.800Z,25.73
2017-11-30T02:04:21.648Z,21.23
2017-11-30T02:06:50.485Z,23.37
2017-11-30T02:09:19.508Z,19.90
2017-11-30T02:11:48.348Z,25.73
2017-11-30T02:14:17.304Z,24.00
2017-11-30T02:16:46.160Z,23.87
2017-11-30T02:19:15.008Z,22.70
2017-11-30T02:21:43.855Z,26.50
2017-11-30T02:24:12.780Z,24.03
2017-11-30T02:26:41.627Z,23.03
2017-11-30T02:29:10.560Z,23.60
2017-11-30T02:31:39.404Z,24.77
2017-11-30T02:34:09.096Z,22.27
2017-11-30T02:36:38.671Z,25.30
2017-11-30T02:39:08.378Z,22.50
2017-11-30T02:41:38.080Z,20.20
2017-11-30T02:44:07.655Z,23.47
2017-11-30T02:46:36.501Z,23.87
2017-11-30T02:49:05.348Z,28.43
2017-11-30T02:51:34.268Z,26.20
2017-11-30T02:54:03.103Z,27.13
2017-11-30T02:56:31.958Z,26.60
2017-11-30T02:59:01.050Z,30.40
2017-11-30T03:01:29.884Z,27.27
2017-11-30T03:03:58.727Z,29.80
2017-11-30T03:06:27.564Z,29.57
2017-11-30T03:08:56.468Z,27.93
2017-11-30T03:11:25.319Z,33.77
2017-11-30T03:13:54.152Z,30.37
2017-11-30T03:16:23.048Z,33.23
2017-11-30T03:18:51.897Z,29.27
2017-11-30T03:21:20.731Z,34.20
2017-11-30T03:23:49.607Z,30.80
2017-11-30T03:26:18.535Z,30.50
2017-11-30T03:28:47.371Z,34.93
2017-11-30T03:31:16.203Z,26.97
2017-11-30T03:33:45.063Z,29.87
2017-11-30T03:36:13.895Z,31.27
2017-11-30T03:38:42.756Z,26.10
2017-11-30T03:41:11.611Z,26.77
2017-11-30T03:43:41.250Z,29.87
2017-11-30T03:46:10.866Z,24.00
2017-11-30T03:48:40.456Z,24.00
2017-11-30T03:51:10.337Z,23.77
2017-11-30T03:53:40.241Z,24.93
2017-11-30T03:56:09.825Z,19.03
2017-11-30T03:58:38.665Z,17.77
2017-11-30T04:01:07.554Z,18.53
2017-11-30T04:03:36.394Z,18.60
2017-11-30T04:06:05.272Z,14.67
2017-11-30T04:08:34.400Z,16.93
2017-11-30T04:11:03.234Z,18.13
2017-11-30T04:13:32.070Z,16.07
2017-11-30T04:16:00.908Z,14.13
2017-11-30T04:18:29.739Z,14.93
2017-11-30T04:20:58.629Z,17.43
2017-11-30T04:23:27.476Z,13.85
2017-11-30T04:25:56.305Z,14.90
2017-11-30T04:28:25.227Z,14.77
2017-11-30T04:30:54.070Z,14.97
2017-11-30T04:33:22.903Z,16.37
2017-11-30T04:35:51.759Z,18.17
2017-11-30T04:38:20.607Z,13.87
2017-11-30T04:40:49.441Z,16.30
2017-11-30T04:43:18.335Z,16.97
2017-11-30T04:45:47.253Z,18.80
2017-11-30T04:48:16.141Z,17.53
2017-11-30T04:50:45.027Z,18.40
2017-11-30T04:53:13.886Z,17.63
2017-11-30T04:55:43.460Z,16.97
2017-11-30T04:58:13.106Z,17.63
2017-11-30T05:00:42.731Z,20.23
2017-11-30T05:03:12.375Z,17.63
2017-11-30T05:05:41.968Z,16.93
2017-11-30T05:08:11.554Z,15.23
2017-11-30T05:10:41.382Z,18.57
2017-11-30T05:13:10.238Z,19.00
2017-11-30T05:15:39.140Z,19.17
2017-11-30T05:18:07.970Z,19.90
2017-11-30T05:20:36.818Z,18.10
2017-11-30T05:23:05.692Z,19.13
2017-11-30T05:25:34.537Z,20.43
2017-11-30T05:28:03.417Z,19.80
2017-11-30T05:30:32.280Z,24.70
2017-11-30T05:33:01.120Z,22.07
2017-11-30T05:35:29.994Z,20.20
2017-11-30T05:37:58.826Z,21.57
2017-11-30T05:40:27.655Z,22.40
2017-11-30T05:42:56.502Z,23.00
2017-11-30T05:45:25.659Z,26.03
2017-11-30T05:47:54.491Z,24.90
2017-11-30T05:50:23.356Z,27.00
2017-11-30T05:52:52.191Z,26.83
2017-11-30T05:55:21.020Z,24.33
2017-11-30T05:57:49.880Z,29.40
2017-11-30T06:00:18.740Z,29.30
2017-11-30T06:02:47.597Z,31.40
2017-11-30T06:05:16.450Z,32.40
2017-11-30T06:07:45.301Z,35.00
2017-11-30T06:10:14.489Z,35.45
2017-11-30T06:12:44.080Z,37.67
2017-11-30T06:15:13.653Z,35.27
2017-11-30T06:17:43.233Z,38.47
2017-11-30T06:20:12.832Z,33.77
2017-11-30T06:22:41.748Z,35.23
2017-11-30T06:25:10.608Z,37.57
2017-11-30T06:27:40.133Z,36.87
2017-11-30T06:30:08.995Z,35.83
2017-11-30T06:32:37.834Z,35.20
2017-11-30T06:35:07.245Z,33.67
2017-11-30T06:37:36.079Z,37.23
2017-11-30T06:40:04.912Z,30.60
2017-11-30T06:42:33.847Z,34.03
2017-11-30T06:45:02.684Z,33.23
2017-11-30T06:47:31.543Z,29.10
2017-11-30T06:50:00.517Z,31.60
2017-11-30T06:52:29.381Z,31.00
2017-11-30T06:54:58.213Z,29.10
2017-11-30T06:57:27.063Z,32.90
2017-11-30T06:59:55.897Z,31.87
2017-11-30T07:02:24.852Z,32.57
2017-11-30T07:04:53.695Z,30.60
2017-11-30T07:07:22.527Z,32.67
2017-11-30T07:09:51.377Z,30.50
2017-11-30T07:12:20.235Z,41.47
2017-11-30T07:14:49.092Z,36.67
2017-11-30T07:17:17.953Z,33.30
2017-11-30T07:19:46.800Z,34.03
2017-11-30T07:22:16.429Z,28.50
2017-11-30T07:24:46.704Z,32.23
2017-11-30T07:27:16.296Z,30.53
2017-11-30T07:29:45.872Z,35.10
2017-11-30T07:32:15.454Z,34.57
2017-11-30T07:34:45.044Z,31.43
2017-11-30T07:37:13.884Z,32.87
2017-11-30T07:39:42.721Z,29.47
2017-11-30T07:42:11.588Z,35.90
2017-11-30T07:44:40.427Z,31.07
2017-11-30T07:47:09.373Z,30.93
2017-11-30T07:49:38.232Z,31.87
2017-11-30T07:52:07.151Z,31.80
2017-11-30T07:54:35.981Z,27.27
2017-11-30T07:57:05.073Z,30.80
2017-11-30T07:59:33.924Z,28.17
2017-11-30T08:02:02.759Z,28.67
2017-11-30T08:04:31.629Z,25.37
2017-11-30T08:07:00.465Z,24.83
2017-11-30T08:09:29.305Z,23.57
2017-11-30T08:11:58.153Z,24.27
2017-11-30T08:14:26.988Z,22.20
2017-11-30T08:16:55.825Z,23.30
2017-11-30T08:19:24.673Z,22.07
2017-11-30T08:21:53.502Z,22.40
2017-11-30T08:24:22.328Z,23.40
2017-11-30T08:26:51.180Z,26.30
2017-11-30T08:29:20.008Z,22.07
2017-11-30T08:31:48.864Z,20.57
2017-11-30T08:34:17.703Z,22.20
2017-11-30T08:36:47.280Z,20.10
2017-11-30T08:39:16.872Z,24.50
2017-11-30T08:41:46.731Z,20.47
2017-11-30T08:44:16.318Z,20.83
2017-11-30T08:46:45.908Z,22.17
2017-11-30T08:49:15.504Z,20.13
2017-11-30T08:51:44.335Z,20.77
2017-11-30T08:54:13.192Z,21.77
2017-11-30T08:56:42.047Z,21.87
2017-11-30T08:59:10.881Z,22.13
2017-11-30T09:01:39.801Z,18.50
2017-11-30T09:04:08.655Z,21.83
2017-11-30T09:06:37.574Z,17.00
2017-11-30T09:09:06.436Z,18.80
2017-11-30T09:11:35.271Z,19.27
2017-11-30T09:14:04.115Z,18.93
2017-11-30T09:16:33.040Z,19.00
2017-11-30T09:19:01.888Z,26.17
2017-11-30T09:21:30.745Z,19.67
2017-11-30T09:23:59.605Z,19.83
2017-11-30T09:26:28.453Z,19.90
2017-11-30T09:28:57.293Z,20.97
2017-11-30T09:31:26.137Z,22.10
2017-11-30T09:33:54.990Z,21.60
2017-11-30T09:36:23.832Z,22.17
2017-11-30T09:38:53.555Z,21.70
2017-11-30T09:41:22.396Z,20.47
2017-11-30T09:43:51.240Z,20.17
2017-11-30T09:46:20.812Z,21.27
2017-11-30T09:48:49.653Z,20.47
2017-11-30T09:51:18.724Z,20.70
2017-11-30T09:53:48.373Z,21.47
2017-11-30T09:56:18.191Z,23.33
2017-11-30T09:58:47.779Z,21.67
2017-11-30T10:01:17.371Z,21.80
2017-11-30T10:03:46.985Z,21.77
2017-11-30T10:06:15.831Z,21.30
2017-11-30T10:08:44.663Z,18.20
2017-11-30T10:11:13.501Z,21.07
2017-11-30T10:13:42.357Z,21.00
2017-11-30T10:16:11.228Z,19.67
2017-11-30T10:18:40.065Z,21.07
2017-11-30T10:21:08.908Z,20.83
2017-11-30T10:23:38.628Z,18.00
2017-11-30T10:26:07.465Z,17.87
2017-11-30T10:28:36.324Z,18.90
2017-11-30T10:31:05.160Z,26.30
2017-11-30T10:33:34.000Z,18.50
2017-11-30T10:36:02.872Z,21.73
2017-11-30T10:38:31.762Z,25.00
2017-11-30T10:41:00.600Z,26.77
2017-11-30T10:43:29.441Z,24.13
2017-11-30T10:45:58.274Z,22.00
2017-11-30T10:48:27.111Z,22.77
2017-11-30T10:50:55.959Z,22.50
2017-11-30T10:53:24.803Z,23.43
2017-11-30T10:55:53.641Z,21.40
2017-11-30T10:58:22.847Z,22.47
2017-11-30T11:00:51.683Z,21.00
2017-11-30T11:03:20.516Z,22.83
2017-11-30T11:05:49.905Z,20.02
2017-11-30T11:08:19.479Z,21.43
2017-11-30T11:10:49.069Z,22.20
2017-11-30T11:13:18.657Z,20.30
2017-11-30T11:15:48.233Z,23.07
2017-11-30T11:18:17.085Z,21.67
2017-11-30T11:20:45.945Z,20.77
2017-11-30T11:23:14.869Z,21.00
2017-11-30T11:25:43.704Z,22.30
2017-11-30T11:28:12.544Z,20.27
2017-11-30T11:30:41.416Z,19.63
2017-11-30T11:33:10.332Z,25.40
2017-11-30T11:35:39.179Z,22.77
2017-11-30T11:38:08.009Z,16.73
2017-11-30T11:40:36.840Z,22.50
2017-11-30T11:43:05.719Z,18.37
2017-11-30T11:45:34.551Z,17.63
2017-11-30T11:48:03.389Z,20.73
2017-11-30T11:50:32.236Z,19.50
2017-11-30T11:53:01.190Z,19.53
2017-11-30T11:55:30.024Z,17.20
2017-11-30T11:57:58.865Z,18.60
2017-11-30T12:00:27.789Z,18.80
2017-11-30T12:02:56.679Z,14.07
2017-11-30T12:05:25.664Z,17.27
2017-11-30T12:07:54.497Z,17.47
2017-11-30T12:10:23.328Z,17.27
2017-11-30T12:12:52.205Z,16.47
2017-11-30T12:15:21.036Z,18.50
2017-11-30T12:17:50.740Z,18.10
2017-11-30T12:20:20.326Z,17.97
2017-11-30T12:22:49.918Z,17.77
2017-11-30T12:25:19.504Z,16.70
2017-11-30T12:27:49.099Z,15.40
2017-11-30T12:30:17.932Z,15.97
2017-11-30T12:32:46.769Z,17.00
2017-11-30T12:35:15.623Z,18.07
2017-11-30T12:37:44.484Z,14.77
2017-11-30T12:40:13.313Z,15.50
2017-11-30T12:42:42.196Z,14.10
2017-11-30T12:45:11.056Z,15.30
2017-11-30T12:47:39.898Z,15.13
2017-11-30T12:50:09.147Z,11.80
2017-11-30T12:52:38.020Z,12.47
2017-11-30T12:55:06.854Z,11.00
2017-11-30T12:57:35.698Z,11.23
2017-11-30T13:00:04.626Z,11.00
2017-11-30T13:02:33.449Z,11.10
2017-11-30T13:05:02.287Z,10.67
2017-11-30T13:07:31.121Z,10.30
2017-11-30T13:09:59.967Z,10.70
2017-11-30T13:12:28.801Z,11.10
2017-11-30T13:14:57.625Z,10.27
2017-11-30T13:17:26.523Z,10.50
2017-11-30T13:19:55.357Z,9.67
2017-11-30T13:22:24.179Z,10.30
2017-11-30T13:24:53.085Z,8.50
2017-11-30T13:27:22.004Z,8.63
2017-11-30T13:29:51.588Z,11.67
2017-11-30T13:32:21.169Z,11.50
2017-11-30T13:34:50.826Z,10.27
2017-11-30T13:37:20.386Z,8.17
2017-11-30T13:39:49.214Z,6.97
2017-11-30T13:42:18.052Z,7.47
2017-11-30T13:44:46.874Z,10.63
2017-11-30T13:47:15.694Z,7.80
2017-11-30T13:49:44.530Z,8.60
2017-11-30T13:52:13.368Z,8.03
2017-11-30T13:54:42.198Z,10.60
2017-11-30T13:57:11.130Z,9.63
2017-11-30T13:59:39.962Z,5.00
2017-11-30T14:02:08.842Z,4.97
2017-11-30T14:04:37.692Z,4.37
2017-11-30T14:07:06.606Z,3.67
2017-11-30T14:09:35.438Z,4.67
2017-11-30T14:12:04.286Z,6.10
2017-11-30T14:14:33.287Z,4.63
2017-11-30T14:17:02.109Z,5.47
2017-11-30T14:19:30.947Z,4.60
2017-11-30T14:21:59.775Z,4.30
2017-11-30T14:24:28.665Z,6.17
2017-11-30T14:26:57.503Z,5.17
2017-11-30T14:29:26.518Z,7.33
2017-11-30T14:31:55.329Z,6.10
2017-11-30T14:34:24.192Z,6.73
2017-11-30T14:36:53.099Z,7.90
2017-11-30T14:39:22.656Z,6.13
2017-11-30T14:41:52.233Z,7.57
2017-11-30T14:44:21.823Z,6.40
2017-11-30T14:46:51.446Z,5.83
2017-11-30T14:49:21.030Z,7.33
2017-11-30T14:51:49.854Z,8.83
2017-11-30T14:54:18.676Z,8.27
2017-11-30T14:56:47.606Z,6.53
2017-11-30T14:59:16.438Z,7.73
2017-11-30T15:01:45.258Z,7.77
2017-11-30T15:04:14.102Z,17.83
2017-11-30T15:06:43.634Z,10.53
2017-11-30T15:09:12.474Z,14.73
2017-11-30T15:11:41.309Z,8.20
2017-11-30T15:14:10.138Z,8.90
2017-11-30T15:16:39.043Z,8.10
2017-11-30T15:19:07.882Z,9.60
2017-11-30T15:21:36.715Z,11.30
2017-11-30T15:24:05.545Z,11.00
2017-11-30T15:26:34.389Z,9.90
2017-11-30T15:29:03.219Z,12.40
2017-11-30T15:31:32.044Z,11.60
2017-11-30T15:34:00.962Z,14.90
2017-11-30T15:36:29.795Z,16.07
2017-11-30T15:38:58.619Z,14.83
2017-11-30T15:41:27.449Z,14.57
2017-11-30T15:43:57.228Z,20.37
2017-11-30T15:46:26.123Z,12.93
2017-11-30T15:48:55.023Z,13.57
2017-11-30T15:51:23.862Z,15.40
2017-11-30T15:53:53.434Z,16.63
2017-11-30T15:56:23.066Z,12.97
2017-11-30T15:58:52.640Z,14.93
2017-11-30T16:01:22.214Z,16.03
2017-11-30T16:03:51.076Z,18.93
2017-11-30T16:06:19.903Z,16.57
2017-11-30T16:08:48.738Z,16.80
2017-11-30T16:11:17.581Z,17.50
2017-11-30T16:13:46.414Z,17.63
2017-11-30T16:16:15.246Z,14.20
2017-11-30T16:18:44.089Z,16.20
2017-11-30T16:21:12.930Z,15.60
2017-11-30T16:23:41.792Z,15.13
2017-11-30T16:26:10.641Z,18.30
2017-11-30T16:28:39.476Z,15.53
2017-11-30T16:31:08.301Z,17.83
2017-11-30T16:33:37.145Z,17.33
2017-11-30T16:36:06.020Z,18.30
2017-11-30T16:38:34.855Z,16.77
2017-11-30T16:41:03.723Z,18.00
2017-11-30T16:43:32.571Z,25.40
2017-11-30T16:46:01.406Z,23.20
2017-11-30T16:48:30.254Z,53.60
2017-11-30T16:50:59.118Z,45.47
2017-11-30T16:53:27.959Z,23.17
2017-11-30T16:55:57.038Z,21.47
2017-11-30T16:58:25.862Z,29.63
2017-11-30T17:00:54.854Z,21.90
2017-11-30T17:03:24.434Z,25.67
2017-11-30T17:05:54.030Z,24.40
2017-11-30T17:08:23.616Z,19.70
2017-11-30T17:10:53.206Z,20.87
2017-11-30T17:13:22.042Z,22.40
2017-11-30T17:15:50.869Z,23.70
2017-11-30T17:18:19.710Z,24.20
2017-11-30T17:20:48.597Z,21.80
2017-11-30T17:23:17.431Z,22.87
2017-11-30T17:25:46.278Z,29.70
2017-11-30T17:28:15.116Z,27.63
2017-11-30T17:30:44.453Z,34.50
2017-11-30T17:33:13.291Z,35.50
2017-11-30T17:35:42.142Z,35.07
2017-11-30T17:38:10.979Z,30.53
2017-11-30T17:40:39.929Z,24.77
2017-11-30T17:43:08.761Z,23.03
2017-11-30T17:45:37.605Z,24.77
2017-11-30T17:48:06.462Z,28.93
2017-11-30T17:50:35.295Z,37.90
2017-11-30T17:53:04.151Z,37.80
2017-11-30T17:55:32.994Z,43.20
2017-11-30T17:58:01.863Z,54.07
2017-11-30T18:00:30.786Z,55.00
2017-11-30T18:02:59.750Z,60.00
2017-11-30T18:05:28.582Z,57.47
2017-11-30T18:07:57.434Z,53.50
2017-11-30T18:10:26.322Z,43.20
2017-11-30T18:12:55.898Z,41.50
2017-11-30T18:15:26.513Z,45.03
2017-11-30T18:17:56.172Z,40.90
2017-11-30T18:20:25.850Z,40.67
2017-11-30T18:22:55.478Z,34.57
2017-11-30T18:25:25.079Z,33.30
2017-11-30T18:27:54.651Z,35.30
2017-11-30T18:30:23.479Z,30.73
2017-11-30T18:32:52.331Z,27.70
2017-11-30T18:35:21.803Z,29.03
2017-11-30T18:37:50.635Z,28.60
2017-11-30T18:40:19.483Z,51.70
2017-11-30T18:42:48.309Z,33.80
2017-11-30T18:45:17.137Z,28.77
2017-11-30T18:47:46.003Z,33.13
2017-11-30T18:50:14.842Z,31.90
2017-11-30T18:52:43.667Z,35.83
2017-11-30T18:55:12.734Z,35.57
2017-11-30T18:57:41.560Z,32.40
2017-11-30T19:00:10.401Z,34.10
2017-11-30T19:02:39.274Z,34.50
2017-11-30T19:05:08.110Z,36.20
2017-11-30T19:07:36.954Z,30.80
2017-11-30T19:10:05.846Z,36.47
2017-11-30T19:12:34.686Z,37.67
2017-11-30T19:15:03.523Z,36.17
2017-11-30T19:17:32.718Z,31.20
2017-11-30T19:20:01.547Z,37.33
2017-11-30T19:22:30.412Z,36.90
2017-11-30T19:25:00.107Z,28.93
2017-11-30T19:27:28.942Z,32.13
2017-11-30T19:29:57.787Z,31.20
2017-11-30T19:32:27.395Z,28.40
2017-11-30T19:34:57.020Z,26.47
2017-11-30T19:37:26.649Z,25.60
2017-11-30T19:39:56.239Z,31.63
2017-11-30T19:42:25.083Z,23.60
2017-11-30T19:44:54.217Z,23.73
2017-11-30T19:47:23.071Z,24.07
2017-11-30T19:49:51.915Z,26.33
2017-11-30T19:52:20.774Z,24.17
2017-11-30T19:54:49.615Z,24.27
2017-11-30T19:57:18.455Z,25.10
2017-11-30T19:59:47.308Z,29.60
2017-11-30T20:02:16.175Z,30.67
2017-11-30T20:04:45.008Z,27.43
2017-11-30T20:07:13.864Z,27.37
2017-11-30T20:09:42.708Z,27.07
2017-11-30T20:12:11.552Z,37.47
2017-11-30T20:14:40.386Z,44.60
2017-11-30T20:17:09.222Z,30.90
2017-11-30T20:19:38.074Z,31.50
2017-11-30T20:22:06.920Z,38.73
2017-11-30T20:24:35.780Z,33.43
2017-11-30T20:27:04.628Z,37.90
2017-11-30T20:29:33.466Z,34.63
2017-11-30T20:32:02.429Z,30.53
2017-11-30T20:34:31.323Z,28.50
2017-11-30T20:37:00.197Z,25.57
2017-11-30T20:39:29.047Z,27.47
2017-11-30T20:41:58.629Z,27.43
2017-11-30T20:44:28.211Z,26.40
2017-11-30T20:46:57.823Z,26.87
2017-11-30T20:49:27.399Z,26.47
2017-11-30T20:51:56.426Z,32.43
2017-11-30T20:54:25.315Z,30.40
2017-11-30T20:56:54.205Z,36.77
2017-11-30T20:59:23.040Z,28.13
2017-11-30T21:01:51.884Z,32.07
2017-11-30T21:04:20.710Z,26.23
2017-11-30T21:06:49.558Z,29.17
2017-11-30T21:09:18.470Z,25.57
2017-11-30T21:11:47.308Z,26.00
2017-11-30T21:14:16.198Z,28.40
2017-11-30T21:16:45.040Z,26.13
2017-11-30T21:19:13.909Z,25.53
2017-11-30T21:21:42.756Z,26.67
2017-11-30T21:24:12.062Z,28.10
2017-11-30T21:26:40.908Z,30.43
2017-11-30T21:29:09.866Z,28.10
2017-11-30T21:31:39.011Z,42.63
2017-11-30T21:34:07.838Z,34.30
2017-11-30T21:36:36.780Z,28.87
2017-11-30T21:39:05.619Z,33.27
2017-11-30T21:41:34.455Z,27.27
2017-11-30T21:44:03.525Z,43.97
2017-11-30T21:46:32.396Z,31.13
2017-11-30T21:49:01.238Z,30.67
2017-11-30T21:51:30.451Z,29.23
2017-11-30T21:54:00.248Z,30.60
2017-11-30T21:56:29.863Z,28.20
2017-11-30T21:58:59.438Z,28.50
2017-11-30T22:01:29.048Z,28.40
2017-11-30T22:03:58.659Z,31.10
2017-11-30T22:06:27.488Z,29.03
2017-11-30T22:08:56.352Z,30.20
2017-11-30T22:11:25.194Z,33.83
2017-11-30T22:13:54.134Z,32.00
2017-11-30T22:16:22.986Z,29.30
2017-11-30T22:18:51.830Z,32.37
2017-11-30T22:21:20.673Z,28.70
2017-11-30T22:23:49.534Z,26.93
2017-11-30T22:26:18.366Z,27.63
2017-11-30T22:28:47.202Z,29.67
2017-11-30T22:31:16.045Z,26.67
2017-11-30T22:33:44.877Z,26.33
2017-11-30T22:36:13.705Z,27.83
2017-11-30T22:38:42.541Z,29.27
2017-11-30T22:41:11.371Z,29.43
2017-11-30T22:43:41.115Z,30.80
2017-11-30T22:46:09.956Z,31.03
2017-11-30T22:48:38.791Z,37.47
2017-11-30T22:51:07.694Z,33.33
2017-11-30T22:53:36.547Z,33.30
2017-11-30T22:56:06.241Z,32.57
2017-11-30T22:58:35.116Z,32.13
2017-11-30T23:01:03.957Z,34.87
2017-11-30T23:03:32.796Z,33.37
2017-11-30T23:06:02.007Z,31.02
2017-11-30T23:08:31.594Z,35.47
2017-11-30T23:11:01.171Z,35.43
2017-11-30T23:13:30.810Z,44.80
2017-11-30T23:16:00.494Z,36.70
2017-11-30T23:18:29.336Z,39.87
2017-11-30T23:20:58.170Z,38.97
2017-11-30T23:23:27.070Z,36.10
2017-11-30T23:25:55.918Z,36.47
2017-11-30T23:28:24.762Z,35.87
2017-11-30T23:30:53.596Z,31.83
2017-11-30T23:33:22.432Z,32.20
2017-11-30T23:35:51.274Z,30.80
2017-11-30T23:38:20.110Z,35.77
2017-11-30T23:40:48.953Z,31.00
2017-11-30T23:43:17.807Z,28.43
2017-11-30T23:45:46.637Z,34.13
2017-11-30T23:48:15.466Z,33.57
2017-11-30T23:50:44.403Z,34.67
2017-11-30T23:53:13.234Z,32.40
2017-11-30T23:55:42.073Z,31.73
2017-11-30T23:58:10.919Z,33.30
